< < Back
Terminal Aerodrome Forecast


Current Version              Previous Versions:   1  2  3  4  5  6  7  8  9  

Terminal Aerodrome Forecast

475
FTUS44 KBMX 051500 AAA
TAFBHM
TAF AMD
KBHM 051512Z 0515/0612 01012KT 4SM -RAPL BR SCT007 OVC012
     FM051700 35010G20KT 4SM -FZRA BR SCT007 OVC012
     FM052000 35012G20KT P6SM OVC015
     FM060200 36012KT P6SM OVC025=



Latest METAR

264
SAUS70 KWBC 061100 RRA
MTRBHM
METAR KBHM 061053Z 35007KT 10SM FEW012 M07/M09 A3046 RMK AO2 SLP321
T10721094


USA.gov is the U.S. government's official web portal to all federal, state and local government web resources and services.